sensor_id;sensor_type;location;lat;lon;timestamp;P1;durP1;ratioP1;P2;durP2;ratioP2
19653;SDS011;9975;48.046;7.804;2022-11-12T01:57:26;28.67;;;9.00;;
19653;SDS011;9975;48.046;7.804;2022-11-12T02:00:00;19.42;;;6.18;;
19653;SDS011;9975;48.046;7.804;2022-11-12T02:02:28;23.27;;;8.43;;
19653;SDS011;9975;48.046;7.804;2022-11-12T02:04:54;23.88;;;7.05;;
19653;SDS011;9975;48.046;7.804;2022-11-12T02:07:21;17.33;;;6.43;;
19653;SDS011;9975;48.046;7.804;2022-11-12T02:09:48;10.25;;;5.80;;
19653;SDS011;9975;48.046;7.804;2022-11-12T02:12:14;21.73;;;6.40;;
19653;SDS011;9975;48.046;7.804;2022-11-12T02:15:00;20.38;;;7.05;;
19653;SDS011;9975;48.046;7.804;2022-11-12T02:17:27;44.10;;;10.40;;
19653;SDS011;9975;48.046;7.804;2022-11-12T02:19:56;19.97;;;6.90;;
19653;SDS011;9975;48.046;7.804;2022-11-12T02:22:26;22.00;;;9.32;;
19653;SDS011;9975;48.046;7.804;2022-11-12T02:24:51;16.77;;;6.07;;
19653;SDS011;9975;48.046;7.804;2022-11-12T02:27:17;8.77;;;6.20;;
19653;SDS011;9975;48.046;7.804;2022-11-12T02:29:43;13.98;;;6.63;;
19653;SDS011;9975;48.046;7.804;2022-11-12T02:32:12;11.07;;;6.68;;
19653;SDS011;9975;48.046;7.804;2022-11-12T02:34:38;29.20;;;7.45;;
19653;SDS011;9975;48.046;7.804;2022-11-12T02:37:04;21.55;;;5.85;;
19653;SDS011;9975;48.046;7.804;2022-11-12T02:39:30;24.55;;;5.72;;
19653;SDS011;9975;48.046;7.804;2022-11-12T02:41:56;13.20;;;5.40;;
19653;SDS011;9975;48.046;7.804;2022-11-12T02:44:22;12.93;;;5.73;;
19653;SDS011;9975;48.046;7.804;2022-11-12T02:46:48;22.57;;;5.83;;
19653;SDS011;9975;48.046;7.804;2022-11-12T02:49:13;14.23;;;6.50;;
19653;SDS011;9975;48.046;7.804;2022-11-12T02:51:39;14.17;;;5.83;;
19653;SDS011;9975;48.046;7.804;2022-11-12T02:54:04;32.33;;;6.77;;
19653;SDS011;9975;48.046;7.804;2022-11-12T02:56:30;17.87;;;6.93;;
19653;SDS011;9975;48.046;7.804;2022-11-12T02:58:56;14.43;;;5.20;;
19653;SDS011;9975;48.046;7.804;2022-11-12T03:01:22;8.93;;;4.90;;
19653;SDS011;9975;48.046;7.804;2022-11-12T03:03:48;11.00;;;5.38;;
19653;SDS011;9975;48.046;7.804;2022-11-12T03:06:13;19.57;;;5.37;;
19653;SDS011;9975;48.046;7.804;2022-11-12T03:08:39;11.53;;;5.07;;
19653;SDS011;9975;48.046;7.804;2022-11-12T03:11:06;15.53;;;5.53;;
19653;SDS011;9975;48.046;7.804;2022-11-12T03:13:36;11.38;;;4.93;;
19653;SDS011;9975;48.046;7.804;2022-11-12T03:16:02;11.80;;;5.15;;
19653;SDS011;9975;48.046;7.804;2022-11-12T03:18:28;16.83;;;5.10;;
19653;SDS011;9975;48.046;7.804;2022-11-12T03:20:55;11.80;;;5.35;;
19653;SDS011;9975;48.046;7.804;2022-11-12T03:23:21;8.60;;;5.00;;
19653;SDS011;9975;48.046;7.804;2022-11-12T03:25:46;6.33;;;5.00;;
19653;SDS011;9975;48.046;7.804;2022-11-12T03:28:14;7.50;;;4.57;;
19653;SDS011;9975;48.046;7.804;2022-11-12T03:30:40;9.60;;;5.60;;
19653;SDS011;9975;48.046;7.804;2022-11-12T03:33:08;7.18;;;4.78;;
19653;SDS011;9975;48.046;7.804;2022-11-12T03:35:35;14.93;;;4.80;;
19653;SDS011;9975;48.046;7.804;2022-11-12T03:38:01;7.90;;;5.50;;
19653;SDS011;9975;48.046;7.804;2022-11-12T03:40:28;12.63;;;5.82;;
19653;SDS011;9975;48.046;7.804;2022-11-12T03:42:53;10.67;;;5.10;;
19653;SDS011;9975;48.046;7.804;2022-11-12T03:45:20;13.00;;;6.25;;
19653;SDS011;9975;48.046;7.804;2022-11-12T03:47:48;7.00;;;5.03;;
19653;SDS011;9975;48.046;7.804;2022-11-12T03:50:15;11.20;;;5.93;;
19653;SDS011;9975;48.046;7.804;2022-11-12T03:52:45;10.73;;;5.80;;
19653;SDS011;9975;48.046;7.804;2022-11-12T03:58:15;8.60;;;4.57;;
19653;SDS011;9975;48.046;7.804;2022-11-12T04:00:40;8.57;;;5.23;;
19653;SDS011;9975;48.046;7.804;2022-11-12T04:03:06;6.93;;;5.40;;
19653;SDS011;9975;48.046;7.804;2022-11-12T04:05:32;7.13;;;4.97;;
19653;SDS011;9975;48.046;7.804;2022-11-12T04:08:17;8.30;;;4.82;;
19653;SDS011;9975;48.046;7.804;2022-11-12T04:11:01;7.65;;;5.05;;
19653;SDS011;9975;48.046;7.804;2022-11-12T04:13:28;5.63;;;4.82;;
19653;SDS011;9975;48.046;7.804;2022-11-12T04:16:00;10.40;;;5.17;;
19653;SDS011;9975;48.046;7.804;2022-11-12T04:18:56;6.13;;;5.15;;
19653;SDS011;9975;48.046;7.804;2022-11-12T04:21:45;9.27;;;5.15;;
19653;SDS011;9975;48.046;7.804;2022-11-12T04:24:31;10.85;;;5.43;;
19653;SDS011;9975;48.046;7.804;2022-11-12T04:29:56;6.37;;;4.87;;
19653;SDS011;9975;48.046;7.804;2022-11-12T04:32:45;10.90;;;5.55;;
19653;SDS011;9975;48.046;7.804;2022-11-12T04:35:17;7.93;;;4.63;;
19653;SDS011;9975;48.046;7.804;2022-11-12T04:37:43;5.70;;;5.03;;
19653;SDS011;9975;48.046;7.804;2022-11-12T04:40:16;6.50;;;5.07;;
19653;SDS011;9975;48.046;7.804;2022-11-12T04:43:04;9.82;;;6.00;;
19653;SDS011;9975;48.046;7.804;2022-11-12T04:45:51;9.55;;;5.55;;
19653;SDS011;9975;48.046;7.804;2022-11-12T04:48:19;8.70;;;5.23;;
19653;SDS011;9975;48.046;7.804;2022-11-12T04:50:47;7.37;;;5.73;;
19653;SDS011;9975;48.046;7.804;2022-11-12T04:53:17;9.50;;;6.03;;
19653;SDS011;9975;48.046;7.804;2022-11-12T04:55:43;8.83;;;5.83;;
19653;SDS011;9975;48.046;7.804;2022-11-12T04:58:08;8.77;;;5.50;;
19653;SDS011;9975;48.046;7.804;2022-11-12T05:00:34;7.45;;;5.70;;
19653;SDS011;9975;48.046;7.804;2022-11-12T05:03:00;9.30;;;6.43;;
19653;SDS011;9975;48.046;7.804;2022-11-12T05:05:25;6.83;;;5.43;;
19653;SDS011;9975;48.046;7.804;2022-11-12T05:07:51;17.63;;;7.20;;
19653;SDS011;9975;48.046;7.804;2022-11-12T05:10:17;9.87;;;6.03;;
19653;SDS011;9975;48.046;7.804;2022-11-12T05:12:43;9.20;;;4.50;;
19653;SDS011;9975;48.046;7.804;2022-11-12T05:15:09;9.67;;;5.47;;
19653;SDS011;9975;48.046;7.804;2022-11-12T05:17:41;12.00;;;5.45;;
19653;SDS011;9975;48.046;7.804;2022-11-12T05:20:08;21.90;;;5.80;;
19653;SDS011;9975;48.046;7.804;2022-11-12T05:22:38;11.40;;;6.30;;
19653;SDS011;9975;48.046;7.804;2022-11-12T05:25:04;10.40;;;5.00;;
19653;SDS011;9975;48.046;7.804;2022-11-12T05:27:30;13.37;;;5.30;;
19653;SDS011;9975;48.046;7.804;2022-11-12T05:29:56;7.20;;;4.93;;
19653;SDS011;9975;48.046;7.804;2022-11-12T05:32:22;15.97;;;5.77;;
19653;SDS011;9975;48.046;7.804;2022-11-12T05:34:48;13.43;;;6.37;;
19653;SDS011;9975;48.046;7.804;2022-11-12T05:37:13;8.70;;;5.17;;
19653;SDS011;9975;48.046;7.804;2022-11-12T05:39:39;10.20;;;4.90;;
19653;SDS011;9975;48.046;7.804;2022-11-12T05:42:05;12.90;;;4.90;;
19653;SDS011;9975;48.046;7.804;2022-11-12T05:44:31;8.07;;;4.72;;
19653;SDS011;9975;48.046;7.804;2022-11-12T05:46:57;8.60;;;4.90;;
19653;SDS011;9975;48.046;7.804;2022-11-12T05:49:22;6.80;;;5.00;;
19653;SDS011;9975;48.046;7.804;2022-11-12T05:51:48;15.97;;;5.23;;
19653;SDS011;9975;48.046;7.804;2022-11-12T05:54:15;13.70;;;5.43;;
19653;SDS011;9975;48.046;7.804;2022-11-12T05:56:41;12.23;;;4.97;;
19653;SDS011;9975;48.046;7.804;2022-11-12T05:59:07;4.47;;;3.50;;
19653;SDS011;9975;48.046;7.804;2022-11-12T06:01:34;6.22;;;4.60;;
19653;SDS011;9975;48.046;7.804;2022-11-12T06:04:07;8.02;;;4.80;;
19653;SDS011;9975;48.046;7.804;2022-11-12T06:06:40;5.82;;;4.00;;
19653;SDS011;9975;48.046;7.804;2022-11-12T06:09:06;9.70;;;5.90;;
19653;SDS011;9975;48.046;7.804;2022-11-12T06:11:32;7.00;;;4.30;;
19653;SDS011;9975;48.046;7.804;2022-11-12T06:13:58;5.57;;;3.55;;
19653;SDS011;9975;48.046;7.804;2022-11-12T06:16:24;11.83;;;5.10;;
19653;SDS011;9975;48.046;7.804;2022-11-12T06:18:50;8.00;;;4.57;;
19653;SDS011;9975;48.046;7.804;2022-11-12T06:21:16;18.40;;;4.60;;
19653;SDS011;9975;48.046;7.804;2022-11-12T06:23:46;7.32;;;4.07;;
19653;SDS011;9975;48.046;7.804;2022-11-12T06:26:13;14.90;;;4.70;;
19653;SDS011;9975;48.046;7.804;2022-11-12T06:28:38;6.77;;;4.10;;
19653;SDS011;9975;48.046;7.804;2022-11-12T06:31:04;12.33;;;4.60;;
19653;SDS011;9975;48.046;7.804;2022-11-12T06:33:30;7.13;;;4.30;;
19653;SDS011;9975;48.046;7.804;2022-11-12T06:35:56;9.60;;;3.97;;
19653;SDS011;9975;48.046;7.804;2022-11-12T06:38:30;6.30;;;4.50;;
19653;SDS011;9975;48.046;7.804;2022-11-12T06:41:00;4.78;;;3.72;;
19653;SDS011;9975;48.046;7.804;2022-11-12T06:43:27;5.93;;;3.97;;
19653;SDS011;9975;48.046;7.804;2022-11-12T06:45:53;8.52;;;4.25;;
19653;SDS011;9975;48.046;7.804;2022-11-12T06:48:23;5.80;;;4.80;;
19653;SDS011;9975;48.046;7.804;2022-11-12T06:50:48;10.80;;;4.50;;
19653;SDS011;9975;48.046;7.804;2022-11-12T06:53:14;13.13;;;4.53;;
19653;SDS011;9975;48.046;7.804;2022-11-12T06:55:39;10.07;;;4.17;;
19653;SDS011;9975;48.046;7.804;2022-11-12T06:58:05;4.70;;;3.13;;
19653;SDS011;9975;48.046;7.804;2022-11-12T07:00:31;6.20;;;4.43;;
19653;SDS011;9975;48.046;7.804;2022-11-12T07:02:56;7.80;;;4.33;;
19653;SDS011;9975;48.046;7.804;2022-11-12T07:05:22;8.33;;;4.50;;
19653;SDS011;9975;48.046;7.804;2022-11-12T07:07:48;11.93;;;4.60;;
19653;SDS011;9975;48.046;7.804;2022-11-12T07:10:13;10.50;;;4.80;;
19653;SDS011;9975;48.046;7.804;2022-11-12T07:12:39;19.13;;;5.50;;
19653;SDS011;9975;48.046;7.804;2022-11-12T07:15:05;10.30;;;6.60;;
19653;SDS011;9975;48.046;7.804;2022-11-12T07:17:31;7.63;;;4.93;;
19653;SDS011;9975;48.046;7.804;2022-11-12T07:19:56;7.37;;;5.37;;
19653;SDS011;9975;48.046;7.804;2022-11-12T07:22:22;10.60;;;5.73;;
19653;SDS011;9975;48.046;7.804;2022-11-12T07:24:48;7.83;;;4.07;;
19653;SDS011;9975;48.046;7.804;2022-11-12T07:27:13;11.50;;;5.10;;
19653;SDS011;9975;48.046;7.804;2022-11-12T07:29:39;7.57;;;4.93;;
19653;SDS011;9975;48.046;7.804;2022-11-12T07:32:05;7.05;;;4.53;;
19653;SDS011;9975;48.046;7.804;2022-11-12T07:34:31;8.93;;;3.97;;
19653;SDS011;9975;48.046;7.804;2022-11-12T07:36:56;8.17;;;3.83;;
19653;SDS011;9975;48.046;7.804;2022-11-12T07:39:22;9.97;;;4.73;;
19653;SDS011;9975;48.046;7.804;2022-11-12T07:41:48;12.00;;;4.80;;
19653;SDS011;9975;48.046;7.804;2022-11-12T07:44:15;11.67;;;5.57;;
19653;SDS011;9975;48.046;7.804;2022-11-12T07:46:41;9.87;;;4.93;;
19653;SDS011;9975;48.046;7.804;2022-11-12T07:49:06;11.67;;;4.87;;
19653;SDS011;9975;48.046;7.804;2022-11-12T07:51:32;13.53;;;5.57;;
19653;SDS011;9975;48.046;7.804;2022-11-12T07:53:57;12.23;;;5.63;;
19653;SDS011;9975;48.046;7.804;2022-11-12T07:56:26;8.40;;;5.07;;
19653;SDS011;9975;48.046;7.804;2022-11-12T07:58:53;18.60;;;5.87;;
19653;SDS011;9975;48.046;7.804;2022-11-12T08:01:29;21.13;;;6.80;;
19653;SDS011;9975;48.046;7.804;2022-11-12T08:03:56;10.20;;;5.90;;
19653;SDS011;9975;48.046;7.804;2022-11-12T08:06:23;16.23;;;7.00;;
19653;SDS011;9975;48.046;7.804;2022-11-12T08:08:53;18.00;;;6.60;;
19653;SDS011;9975;48.046;7.804;2022-11-12T08:11:19;16.07;;;6.40;;
19653;SDS011;9975;48.046;7.804;2022-11-12T08:13:45;19.07;;;7.30;;
19653;SDS011;9975;48.046;7.804;2022-11-12T08:16:11;20.47;;;6.53;;
19653;SDS011;9975;48.046;7.804;2022-11-12T08:18:36;8.10;;;5.20;;
19653;SDS011;9975;48.046;7.804;2022-11-12T08:21:03;18.37;;;7.77;;
19653;SDS011;9975;48.046;7.804;2022-11-12T08:23:30;15.87;;;7.07;;
19653;SDS011;9975;48.046;7.804;2022-11-12T08:26:00;23.00;;;6.27;;
19653;SDS011;9975;48.046;7.804;2022-11-12T08:28:30;9.40;;;5.77;;
19653;SDS011;9975;48.046;7.804;2022-11-12T08:30:57;10.40;;;5.63;;
19653;SDS011;9975;48.046;7.804;2022-11-12T08:33:27;13.20;;;5.70;;
19653;SDS011;9975;48.046;7.804;2022-11-12T08:35:53;18.90;;;7.13;;
19653;SDS011;9975;48.046;7.804;2022-11-12T08:38:20;11.77;;;5.50;;
19653;SDS011;9975;48.046;7.804;2022-11-12T08:40:45;21.83;;;7.37;;
19653;SDS011;9975;48.046;7.804;2022-11-12T08:43:11;11.70;;;5.57;;
19653;SDS011;9975;48.046;7.804;2022-11-12T08:45:37;14.20;;;6.30;;
19653;SDS011;9975;48.046;7.804;2022-11-12T08:48:05;14.07;;;6.50;;
19653;SDS011;9975;48.046;7.804;2022-11-12T08:50:32;16.23;;;6.53;;
19653;SDS011;9975;48.046;7.804;2022-11-12T08:52:59;18.13;;;5.90;;
19653;SDS011;9975;48.046;7.804;2022-11-12T08:55:29;15.07;;;6.77;;
19653;SDS011;9975;48.046;7.804;2022-11-12T08:57:57;17.80;;;7.60;;
19653;SDS011;9975;48.046;7.804;2022-11-12T09:00:26;20.90;;;7.53;;
19653;SDS011;9975;48.046;7.804;2022-11-12T09:02:52;13.00;;;6.53;;
19653;SDS011;9975;48.046;7.804;2022-11-12T09:05:18;13.27;;;6.43;;
19653;SDS011;9975;48.046;7.804;2022-11-12T09:07:44;12.40;;;7.27;;
19653;SDS011;9975;48.046;7.804;2022-11-12T09:10:11;21.43;;;8.07;;
19653;SDS011;9975;48.046;7.804;2022-11-12T09:12:40;31.90;;;14.80;;
19653;SDS011;9975;48.046;7.804;2022-11-12T09:15:06;21.23;;;16.10;;
19653;SDS011;9975;48.046;7.804;2022-11-12T09:17:31;19.87;;;9.07;;
19653;SDS011;9975;48.046;7.804;2022-11-12T09:19:59;20.13;;;8.03;;
19653;SDS011;9975;48.046;7.804;2022-11-12T09:22:24;18.97;;;8.10;;
19653;SDS011;9975;48.046;7.804;2022-11-12T09:24:50;19.73;;;10.90;;
19653;SDS011;9975;48.046;7.804;2022-11-12T09:27:16;11.33;;;6.80;;
19653;SDS011;9975;48.046;7.804;2022-11-12T09:29:41;18.07;;;7.77;;
19653;SDS011;9975;48.046;7.804;2022-11-12T09:32:07;15.87;;;7.20;;
19653;SDS011;9975;48.046;7.804;2022-11-12T09:34:32;17.00;;;7.93;;
19653;SDS011;9975;48.046;7.804;2022-11-12T09:36:58;17.33;;;9.20;;
19653;SDS011;9975;48.046;7.804;2022-11-12T09:39:23;16.80;;;8.80;;
19653;SDS011;9975;48.046;7.804;2022-11-12T09:41:49;15.40;;;7.60;;
19653;SDS011;9975;48.046;7.804;2022-11-12T09:44:18;18.33;;;7.20;;
19653;SDS011;9975;48.046;7.804;2022-11-12T09:46:58;37.90;;;9.70;;
19653;SDS011;9975;48.046;7.804;2022-11-12T09:50:17;16.63;;;8.00;;
19653;SDS011;9975;48.046;7.804;2022-11-12T09:52:28;25.40;;;12.97;;
19653;SDS011;9975;48.046;7.804;2022-11-12T09:55:03;20.83;;;9.07;;
19653;SDS011;9975;48.046;7.804;2022-11-12T09:57:33;17.13;;;9.47;;
19653;SDS011;9975;48.046;7.804;2022-11-12T09:59:59;23.23;;;8.53;;
19653;SDS011;9975;48.046;7.804;2022-11-12T10:02:38;20.70;;;8.97;;
19653;SDS011;9975;48.046;7.804;2022-11-12T10:05:28;18.87;;;9.30;;
19653;SDS011;9975;48.046;7.804;2022-11-12T10:10:47;20.20;;;9.43;;
19653;SDS011;9975;48.046;7.804;2022-11-12T10:13:42;22.93;;;10.80;;
19653;SDS011;9975;48.046;7.804;2022-11-12T10:19:13;16.93;;;7.90;;
19653;SDS011;9975;48.046;7.804;2022-11-12T10:24:54;29.23;;;12.73;;
19653;SDS011;9975;48.046;7.804;2022-11-12T10:27:22;14.33;;;9.53;;
19653;SDS011;9975;48.046;7.804;2022-11-12T10:32:20;20.80;;;8.63;;
19653;SDS011;9975;48.046;7.804;2022-11-12T10:34:46;17.17;;;8.47;;
19653;SDS011;9975;48.046;7.804;2022-11-12T10:37:13;23.90;;;11.90;;
19653;SDS011;9975;48.046;7.804;2022-11-12T10:39:47;15.67;;;8.57;;
19653;SDS011;9975;48.046;7.804;2022-11-12T10:42:14;15.73;;;8.63;;
19653;SDS011;9975;48.046;7.804;2022-11-12T10:44:41;16.07;;;9.60;;
19653;SDS011;9975;48.046;7.804;2022-11-12T10:53:27;39.23;;;18.27;;
19653;SDS011;9975;48.046;7.804;2022-11-12T10:55:56;20.30;;;11.20;;
19653;SDS011;9975;48.046;7.804;2022-11-12T10:58:23;16.77;;;8.27;;
19653;SDS011;9975;48.046;7.804;2022-11-12T11:01:08;19.47;;;9.97;;
19653;SDS011;9975;48.046;7.804;2022-11-12T11:03:46;13.93;;;7.83;;
19653;SDS011;9975;48.046;7.804;2022-11-12T11:06:20;18.80;;;10.53;;
19653;SDS011;9975;48.046;7.804;2022-11-12T11:08:52;16.17;;;9.10;;
19653;SDS011;9975;48.046;7.804;2022-11-12T11:11:31;21.43;;;11.60;;
19653;SDS011;9975;48.046;7.804;2022-11-12T11:14:18;20.10;;;10.17;;
19653;SDS011;9975;48.046;7.804;2022-11-12T11:16:51;17.60;;;9.30;;
19653;SDS011;9975;48.046;7.804;2022-11-12T11:19:19;19.20;;;10.80;;
19653;SDS011;9975;48.046;7.804;2022-11-12T11:32:23;19.87;;;11.13;;
19653;SDS011;9975;48.046;7.804;2022-11-12T11:35:19;22.17;;;10.70;;
19653;SDS011;9975;48.046;7.804;2022-11-12T11:40:46;18.17;;;9.20;;
19653;SDS011;9975;48.046;7.804;2022-11-12T11:43:57;17.70;;;10.40;;
19653;SDS011;9975;48.046;7.804;2022-11-12T11:46:48;17.77;;;9.90;;
19653;SDS011;9975;48.046;7.804;2022-11-12T11:52:13;23.83;;;13.17;;
19653;SDS011;9975;48.046;7.804;2022-11-12T12:00:17;20.83;;;10.87;;
19653;SDS011;9975;48.046;7.804;2022-11-12T12:08:11;27.47;;;12.03;;
19653;SDS011;9975;48.046;7.804;2022-11-12T12:13:55;21.77;;;11.70;;
19653;SDS011;9975;48.046;7.804;2022-11-12T12:16:34;22.60;;;12.60;;
19653;SDS011;9975;48.046;7.804;2022-11-12T12:22:09;23.57;;;12.60;;
19653;SDS011;9975;48.046;7.804;2022-11-12T12:27:20;25.30;;;12.83;;
19653;SDS011;9975;48.046;7.804;2022-11-12T12:29:52;25.07;;;13.13;;
19653;SDS011;9975;48.046;7.804;2022-11-12T12:34:57;24.40;;;11.60;;
19653;SDS011;9975;48.046;7.804;2022-11-12T12:37:36;25.13;;;12.17;;
19653;SDS011;9975;48.046;7.804;2022-11-12T12:42:58;26.80;;;13.10;;
19653;SDS011;9975;48.046;7.804;2022-11-12T12:45:44;26.80;;;12.60;;
19653;SDS011;9975;48.046;7.804;2022-11-12T12:48:15;24.47;;;12.20;;
19653;SDS011;9975;48.046;7.804;2022-11-12T12:50:47;23.20;;;12.83;;
19653;SDS011;9975;48.046;7.804;2022-11-12T12:53:15;20.03;;;11.17;;
19653;SDS011;9975;48.046;7.804;2022-11-12T12:55:57;24.77;;;12.33;;
19653;SDS011;9975;48.046;7.804;2022-11-12T13:01:24;28.10;;;13.60;;
19653;SDS011;9975;48.046;7.804;2022-11-12T13:03:59;27.33;;;13.40;;
19653;SDS011;9975;48.046;7.804;2022-11-12T13:17:01;27.23;;;13.90;;
19653;SDS011;9975;48.046;7.804;2022-11-12T13:19:37;21.87;;;11.53;;
19653;SDS011;9975;48.046;7.804;2022-11-12T13:35:33;29.90;;;14.57;;
19653;SDS011;9975;48.046;7.804;2022-11-12T13:51:24;24.37;;;13.10;;
19653;SDS011;9975;48.046;7.804;2022-11-12T13:53:57;26.73;;;13.93;;
19653;SDS011;9975;48.046;7.804;2022-11-12T13:56:30;28.57;;;14.77;;
19653;SDS011;9975;48.046;7.804;2022-11-12T13:59:09;28.67;;;13.40;;
19653;SDS011;9975;48.046;7.804;2022-11-12T14:01:42;26.87;;;13.13;;
19653;SDS011;9975;48.046;7.804;2022-11-12T14:04:12;31.27;;;14.63;;
19653;SDS011;9975;48.046;7.804;2022-11-12T14:06:41;29.80;;;14.07;;
19653;SDS011;9975;48.046;7.804;2022-11-12T14:11:54;34.87;;;15.87;;
19653;SDS011;9975;48.046;7.804;2022-11-12T14:14:46;30.27;;;14.30;;
19653;SDS011;9975;48.046;7.804;2022-11-12T14:17:34;32.07;;;16.97;;
19653;SDS011;9975;48.046;7.804;2022-11-12T14:22:54;36.73;;;15.60;;
19653;SDS011;9975;48.046;7.804;2022-11-12T14:25:22;47.27;;;19.60;;
19653;SDS011;9975;48.046;7.804;2022-11-12T14:27:52;36.03;;;17.17;;
19653;SDS011;9975;48.046;7.804;2022-11-12T14:30:20;66.53;;;30.13;;
19653;SDS011;9975;48.046;7.804;2022-11-12T14:32:49;49.80;;;21.73;;
19653;SDS011;9975;48.046;7.804;2022-11-12T14:38:03;31.60;;;14.80;;
19653;SDS011;9975;48.046;7.804;2022-11-12T14:40:57;31.70;;;15.57;;
19653;SDS011;9975;48.046;7.804;2022-11-12T14:43:57;32.83;;;15.87;;
19653;SDS011;9975;48.046;7.804;2022-11-12T14:51:30;35.87;;;17.00;;
19653;SDS011;9975;48.046;7.804;2022-11-12T14:54:03;38.70;;;17.63;;
19653;SDS011;9975;48.046;7.804;2022-11-12T14:58:59;38.87;;;18.70;;
19653;SDS011;9975;48.046;7.804;2022-11-12T15:01:30;40.00;;;17.50;;
19653;SDS011;9975;48.046;7.804;2022-11-12T15:06:35;45.63;;;19.77;;
19653;SDS011;9975;48.046;7.804;2022-11-12T15:09:02;34.40;;;16.13;;
19653;SDS011;9975;48.046;7.804;2022-11-12T15:13:54;36.37;;;16.67;;
19653;SDS011;9975;48.046;7.804;2022-11-12T15:16:34;38.40;;;17.33;;
19653;SDS011;9975;48.046;7.804;2022-11-12T15:19:12;36.90;;;17.30;;
19653;SDS011;9975;48.046;7.804;2022-11-12T15:26:43;28.60;;;13.57;;
19653;SDS011;9975;48.046;7.804;2022-11-12T15:31:46;42.87;;;22.20;;
19653;SDS011;9975;48.046;7.804;2022-11-12T15:34:31;47.90;;;17.27;;
19653;SDS011;9975;48.046;7.804;2022-11-12T15:37:07;42.17;;;20.10;;
19653;SDS011;9975;48.046;7.804;2022-11-12T15:39:48;37.60;;;21.10;;
19653;SDS011;9975;48.046;7.804;2022-11-12T15:44:48;62.73;;;24.00;;
19653;SDS011;9975;48.046;7.804;2022-11-12T15:47:18;55.50;;;25.70;;
19653;SDS011;9975;48.046;7.804;2022-11-12T15:49:48;37.83;;;17.80;;
19653;SDS011;9975;48.046;7.804;2022-11-12T15:52:15;38.37;;;16.37;;
19653;SDS011;9975;48.046;7.804;2022-11-12T15:54:41;33.73;;;16.40;;
19653;SDS011;9975;48.046;7.804;2022-11-12T15:57:13;33.97;;;14.97;;
19653;SDS011;9975;48.046;7.804;2022-11-12T15:59:51;29.07;;;15.90;;
19653;SDS011;9975;48.046;7.804;2022-11-12T16:02:22;29.33;;;14.50;;
19653;SDS011;9975;48.046;7.804;2022-11-12T16:04:48;33.23;;;16.60;;
19653;SDS011;9975;48.046;7.804;2022-11-12T16:07:14;37.60;;;15.97;;
19653;SDS011;9975;48.046;7.804;2022-11-12T16:09:40;44.73;;;18.50;;
19653;SDS011;9975;48.046;7.804;2022-11-12T16:12:07;35.63;;;18.03;;
19653;SDS011;9975;48.046;7.804;2022-11-12T16:14:34;36.20;;;17.67;;
19653;SDS011;9975;48.046;7.804;2022-11-12T16:17:00;50.50;;;21.40;;
19653;SDS011;9975;48.046;7.804;2022-11-12T16:19:26;50.03;;;20.20;;
19653;SDS011;9975;48.046;7.804;2022-11-12T16:21:52;38.83;;;18.27;;
19653;SDS011;9975;48.046;7.804;2022-11-12T16:24:17;38.50;;;17.80;;
19653;SDS011;9975;48.046;7.804;2022-11-12T16:26:43;33.77;;;16.13;;
19653;SDS011;9975;48.046;7.804;2022-11-12T16:29:10;31.20;;;15.10;;
19653;SDS011;9975;48.046;7.804;2022-11-12T16:31:39;29.43;;;15.17;;
19653;SDS011;9975;48.046;7.804;2022-11-12T16:34:05;27.93;;;14.30;;
19653;SDS011;9975;48.046;7.804;2022-11-12T16:36:31;33.73;;;17.23;;
19653;SDS011;9975;48.046;7.804;2022-11-12T16:38:56;29.77;;;15.93;;
19653;SDS011;9975;48.046;7.804;2022-11-12T16:41:22;39.90;;;14.87;;
19653;SDS011;9975;48.046;7.804;2022-11-12T16:43:48;41.13;;;14.70;;
19653;SDS011;9975;48.046;7.804;2022-11-12T16:46:27;35.20;;;17.50;;
19653;SDS011;9975;48.046;7.804;2022-11-12T16:48:54;50.07;;;26.03;;
19653;SDS011;9975;48.046;7.804;2022-11-12T16:51:21;34.97;;;15.30;;
19653;SDS011;9975;48.046;7.804;2022-11-12T16:53:47;36.17;;;15.90;;
19653;SDS011;9975;48.046;7.804;2022-11-12T16:56:17;32.43;;;15.47;;
19653;SDS011;9975;48.046;7.804;2022-11-12T16:58:45;44.90;;;17.37;;
19653;SDS011;9975;48.046;7.804;2022-11-12T17:01:22;52.60;;;23.93;;
19653;SDS011;9975;48.046;7.804;2022-11-12T17:03:50;44.43;;;23.43;;
19653;SDS011;9975;48.046;7.804;2022-11-12T17:06:17;40.03;;;18.20;;
19653;SDS011;9975;48.046;7.804;2022-11-12T17:08:43;38.73;;;20.13;;
19653;SDS011;9975;48.046;7.804;2022-11-12T17:11:12;37.77;;;15.80;;
19653;SDS011;9975;48.046;7.804;2022-11-12T17:13:40;29.27;;;13.50;;
19653;SDS011;9975;48.046;7.804;2022-11-12T17:16:07;39.30;;;14.80;;
19653;SDS011;9975;48.046;7.804;2022-11-12T17:18:33;34.60;;;14.47;;
19653;SDS011;9975;48.046;7.804;2022-11-12T17:21:09;26.10;;;15.50;;
19653;SDS011;9975;48.046;7.804;2022-11-12T17:23:37;29.30;;;13.37;;
19653;SDS011;9975;48.046;7.804;2022-11-12T17:26:04;25.60;;;13.10;;
19653;SDS011;9975;48.046;7.804;2022-11-12T17:28:31;26.03;;;12.63;;
19653;SDS011;9975;48.046;7.804;2022-11-12T17:33:35;33.33;;;14.50;;
19653;SDS011;9975;48.046;7.804;2022-11-12T17:36:02;32.70;;;13.80;;
19653;SDS011;9975;48.046;7.804;2022-11-12T17:38:29;26.40;;;13.23;;
19653;SDS011;9975;48.046;7.804;2022-11-12T17:40:55;36.53;;;14.37;;
19653;SDS011;9975;48.046;7.804;2022-11-12T17:43:21;31.53;;;15.40;;
19653;SDS011;9975;48.046;7.804;2022-11-12T17:45:51;32.70;;;14.37;;
19653;SDS011;9975;48.046;7.804;2022-11-12T17:48:18;34.93;;;13.73;;
19653;SDS011;9975;48.046;7.804;2022-11-12T17:50:44;25.50;;;12.60;;
19653;SDS011;9975;48.046;7.804;2022-11-12T17:53:10;28.33;;;14.67;;
19653;SDS011;9975;48.046;7.804;2022-11-12T17:55:36;30.73;;;13.60;;
19653;SDS011;9975;48.046;7.804;2022-11-12T17:58:01;31.67;;;16.07;;
19653;SDS011;9975;48.046;7.804;2022-11-12T18:00:27;33.67;;;15.10;;
19653;SDS011;9975;48.046;7.804;2022-11-12T18:02:56;30.10;;;13.20;;
19653;SDS011;9975;48.046;7.804;2022-11-12T18:05:22;41.90;;;18.00;;
19653;SDS011;9975;48.046;7.804;2022-11-12T18:07:49;37.43;;;17.90;;
19653;SDS011;9975;48.046;7.804;2022-11-12T18:10:15;33.73;;;15.30;;
19653;SDS011;9975;48.046;7.804;2022-11-12T18:12:41;38.90;;;17.33;;
19653;SDS011;9975;48.046;7.804;2022-11-12T18:15:06;33.70;;;16.73;;
19653;SDS011;9975;48.046;7.804;2022-11-12T18:17:32;45.67;;;15.07;;
19653;SDS011;9975;48.046;7.804;2022-11-12T18:19:58;29.90;;;13.90;;
19653;SDS011;9975;48.046;7.804;2022-11-12T18:22:24;35.60;;;16.73;;
19653;SDS011;9975;48.046;7.804;2022-11-12T18:24:50;34.90;;;15.07;;
19653;SDS011;9975;48.046;7.804;2022-11-12T18:27:17;41.20;;;16.30;;
19653;SDS011;9975;48.046;7.804;2022-11-12T18:29:43;53.43;;;17.40;;
19653;SDS011;9975;48.046;7.804;2022-11-12T18:32:10;31.10;;;16.10;;
19653;SDS011;9975;48.046;7.804;2022-11-12T18:34:36;35.77;;;15.07;;
19653;SDS011;9975;48.046;7.804;2022-11-12T18:37:05;28.77;;;14.73;;
19653;SDS011;9975;48.046;7.804;2022-11-12T18:39:31;24.93;;;12.13;;
19653;SDS011;9975;48.046;7.804;2022-11-12T18:41:57;30.37;;;14.57;;
19653;SDS011;9975;48.046;7.804;2022-11-12T18:44:23;30.90;;;14.03;;
19653;SDS011;9975;48.046;7.804;2022-11-12T18:46:49;35.10;;;16.00;;
19653;SDS011;9975;48.046;7.804;2022-11-12T18:49:17;32.60;;;14.53;;
19653;SDS011;9975;48.046;7.804;2022-11-12T18:51:43;36.57;;;14.80;;
19653;SDS011;9975;48.046;7.804;2022-11-12T18:54:08;32.20;;;16.20;;
19653;SDS011;9975;48.046;7.804;2022-11-12T18:56:34;30.70;;;12.73;;
19653;SDS011;9975;48.046;7.804;2022-11-12T18:59:02;35.07;;;13.60;;
19653;SDS011;9975;48.046;7.804;2022-11-12T19:01:28;27.20;;;12.60;;
19653;SDS011;9975;48.046;7.804;2022-11-12T19:03:54;25.90;;;10.53;;
19653;SDS011;9975;48.046;7.804;2022-11-12T19:06:21;28.23;;;11.30;;
19653;SDS011;9975;48.046;7.804;2022-11-12T19:08:47;33.13;;;13.03;;
19653;SDS011;9975;48.046;7.804;2022-11-12T19:11:14;23.60;;;12.17;;
19653;SDS011;9975;48.046;7.804;2022-11-12T19:13:40;34.83;;;14.43;;